Time;durP1;ratioP1;P1;durP2;ratioP2;P2;SDS_P1;SDS_P2;PMS_P1;PMS_P2;Temp;Humidity;BMP_temperature;BMP_pressure;BME280_temperature;BME280_humidity;BME280_pressure;Samples;Min_cycle;Max_cycle;Signal;HPM_P1;HPM_P2
2023/06/21 00:01:19;;;;;;;11.65;10.25;;;;;;;19.46;99.65;101098.94;5112210;28;20110;-64
2023/06/21 00:03:45;;;;;;;11.88;10.77;;;;;;;19.34;100.00;101107.38;5112539;28;20023;-64
2023/06/21 00:06:10;;;;;;;11.43;10.38;;;;;;;19.26;100.00;101100.84;5093639;28;20179;-64
2023/06/21 00:08:35;;;;;;;12.00;10.90;;;;;;;19.29;100.00;101097.03;5111918;28;20034;-64
2023/06/21 00:11:01;;;;;;;11.52;10.32;;;;;;;19.21;100.00;101089.69;5094098;28;20024;-64
2023/06/21 00:13:27;;;;;;;12.75;11.45;;;;;;;19.22;100.00;101114.81;5112790;27;20432;-64
2023/06/21 00:15:54;;;;;;;12.60;10.85;;;;;;;19.17;100.00;101119.78;5111837;28;20035;-64
2023/06/21 00:18:20;;;;;;;12.40;11.20;;;;;;;19.27;100.00;101112.53;5112542;28;20094;-64
2023/06/21 00:20:46;;;;;;;11.90;10.80;;;;;;;19.23;100.00;101121.88;5112257;28;20027;-64
2023/06/21 00:23:12;;;;;;;12.68;11.57;;;;;;;19.19;100.00;101123.19;5111165;28;20042;-64
2023/06/21 00:25:37;;;;;;;12.93;11.73;;;;;;;19.13;100.00;101108.44;5092441;28;20474;-64
2023/06/21 00:28:03;;;;;;;13.45;12.15;;;;;;;19.14;100.00;101111.97;5074371;28;20028;-64
2023/06/21 00:30:28;;;;;;;13.18;11.90;;;;;;;19.12;100.00;101112.13;5078709;28;20034;-64
2023/06/21 00:32:54;;;;;;;12.77;11.57;;;;;;;19.03;100.00;101110.28;5093923;28;20114;-64
2023/06/21 00:35:21;;;;;;;13.00;11.77;;;;;;;19.05;100.00;101105.63;5111919;28;20066;-64
2023/06/21 00:37:47;;;;;;;13.48;12.07;;;;;;;19.19;100.00;101107.84;5111696;28;20035;-64
2023/06/21 00:40:12;;;;;;;14.15;12.13;;;;;;;19.09;100.00;101116.94;5093686;28;20418;-64
2023/06/21 00:42:39;;;;;;;15.25;12.18;;;;;;;19.14;100.00;101120.06;5111917;28;20027;-64
2023/06/21 00:45:05;;;;;;;13.23;11.93;;;;;;;19.06;100.00;101096.56;5102930;28;20056;-65
2023/06/21 00:47:33;;;;;;;12.98;11.75;;;;;;;19.05;100.00;101109.16;5109887;28;20475;-64
2023/06/21 00:49:58;;;;;;;14.00;12.80;;;;;;;18.93;100.00;101113.00;5093506;28;20008;-64
2023/06/21 00:52:25;;;;;;;13.70;12.50;;;;;;;19.03;100.00;101112.97;5111847;28;20047;-64
2023/06/21 00:54:51;;;;;;;13.88;12.55;;;;;;;18.95;100.00;101110.19;5093441;28;20024;-64
2023/06/21 00:57:16;;;;;;;13.32;12.02;;;;;;;18.99;100.00;101122.38;5111947;28;20030;-65
2023/06/21 00:59:42;;;;;;;14.20;12.80;;;;;;;18.80;100.00;101112.47;5111436;28;20055;-64
2023/06/21 01:02:07;;;;;;;13.30;12.07;;;;;;;18.89;100.00;101116.16;5112015;28;20026;-64
2023/06/21 01:04:34;;;;;;;13.98;12.68;;;;;;;18.99;100.00;101123.22;5093874;28;20042;-64
2023/06/21 01:07:17;;;;;;;13.65;12.27;;;;;;;18.96;100.00;101122.66;5093379;28;20479;-64
2023/06/21 01:09:42;;;;;;;13.70;12.40;;;;;;;18.91;100.00;101128.47;5111285;28;20068;-64
2023/06/21 01:12:41;;;;;;;13.70;12.35;;;;;;;18.92;100.00;101132.88;5093750;28;20592;-64
2023/06/21 01:15:15;;;;;;;13.73;12.52;;;;;;;18.99;100.00;101131.31;5081960;28;20074;-64
2023/06/21 01:17:45;;;;;;;13.85;12.55;;;;;;;18.95;100.00;101119.13;5093680;28;20072;-64
2023/06/21 01:20:18;;;;;;;13.10;11.93;;;;;;;19.03;100.00;101118.38;5076517;28;20030;-64
2023/06/21 01:23:12;;;;;;;14.20;12.80;;;;;;;19.08;100.00;101128.75;5091617;28;20032;-64
2023/06/21 01:26:11;;;;;;;13.70;12.32;;;;;;;18.96;100.00;101126.19;5101222;28;20506;-64
2023/06/21 01:28:45;;;;;;;15.30;13.88;;;;;;;19.04;100.00;101128.19;5106700;28;20040;-65
2023/06/21 01:31:16;;;;;;;13.80;12.50;;;;;;;18.93;100.00;101137.28;5110363;28;20027;-64
2023/06/21 01:33:42;;;;;;;15.10;13.70;;;;;;;18.93;100.00;101131.88;5092186;28;20019;-64
2023/06/21 01:36:09;;;;;;;14.75;13.38;;;;;;;18.87;100.00;101137.84;5088358;28;20077;-64
2023/06/21 01:38:37;;;;;;;15.38;13.85;;;;;;;18.94;100.00;101133.59;5102500;28;20023;-64
2023/06/21 01:41:02;;;;;;;15.05;13.55;;;;;;;18.94;100.00;101143.50;5098109;28;20486;-64
2023/06/21 01:43:29;;;;;;;13.95;12.75;;;;;;;19.00;100.00;101145.63;5107428;28;20111;-64
2023/06/21 01:45:56;;;;;;;14.23;12.93;;;;;;;18.87;100.00;101128.91;5110636;28;20043;-65
2023/06/21 01:48:23;;;;;;;14.50;13.20;;;;;;;18.87;100.00;101121.69;5114319;28;20161;-64
2023/06/21 01:50:50;;;;;;;13.38;12.20;;;;;;;18.99;100.00;101133.16;5094563;28;20028;-64
2023/06/21 01:53:17;;;;;;;14.48;13.27;;;;;;;18.90;100.00;101132.16;5113911;28;20034;-64
2023/06/21 01:55:48;;;;;;;14.20;12.98;;;;;;;18.86;100.00;101138.84;5109789;28;20044;-64
2023/06/21 01:58:16;;;;;;;14.25;12.95;;;;;;;18.78;100.00;101149.50;5081532;28;20020;-64
2023/06/21 02:00:44;;;;;;;14.07;12.73;;;;;;;18.85;100.00;101153.31;5093959;28;20482;-65
2023/06/21 02:03:10;;;;;;;14.85;13.55;;;;;;;18.81;100.00;101150.06;5096557;28;20092;-65
2023/06/21 02:05:39;;;;;;;15.00;13.23;;;;;;;18.72;100.00;101152.72;5113047;28;20031;-65
2023/06/21 02:08:05;;;;;;;15.43;14.13;;;;;;;18.73;100.00;101160.69;5076088;28;20056;-64
2023/06/21 02:10:31;;;;;;;15.23;13.90;;;;;;;18.72;100.00;101158.97;5093920;28;20066;-65
2023/06/21 02:12:57;;;;;;;15.25;13.65;;;;;;;18.74;100.00;101158.88;5094980;28;20024;-64
2023/06/21 02:15:23;;;;;;;15.63;14.07;;;;;;;18.73;100.00;101152.59;5114032;28;20398;-64
2023/06/21 02:17:51;;;;;;;14.95;13.48;;;;;;;18.72;100.00;101166.19;5094405;28;20126;-64
2023/06/21 02:20:22;;;;;;;14.55;13.25;;;;;;;18.79;100.00;101172.75;5095328;28;20078;-65
2023/06/21 02:22:47;;;;;;;15.05;13.07;;;;;;;18.57;100.00;101163.91;5081508;28;20032;-64
2023/06/21 02:25:15;;;;;;;15.48;14.18;;;;;;;18.56;100.00;101173.00;5110231;28;20316;-64
2023/06/21 02:27:41;;;;;;;15.65;14.10;;;;;;;18.57;100.00;101177.41;5111759;28;20031;-65
2023/06/21 02:30:08;;;;;;;16.02;14.45;;;;;;;18.57;100.00;101174.69;5093441;28;20034;-64
2023/06/21 02:32:34;;;;;;;15.68;14.25;;;;;;;18.63;100.00;101172.44;5091465;28;20019;-64
2023/06/21 02:35:02;;;;;;;15.88;14.32;;;;;;;18.52;100.00;101176.97;5110637;28;20089;-64
2023/06/21 02:37:28;;;;;;;15.48;14.07;;;;;;;18.55;100.00;101192.84;5113150;28;20492;-65
2023/06/21 02:39:57;;;;;;;15.25;13.65;;;;;;;18.60;100.00;101192.44;5113849;28;20475;-64
2023/06/21 02:42:23;;;;;;;16.45;14.75;;;;;;;18.64;100.00;101190.31;5095689;28;20368;-64
2023/06/21 02:44:51;;;;;;;16.63;14.93;;;;;;;18.57;100.00;101192.72;5113068;28;20023;-64
2023/06/21 02:47:16;;;;;;;17.15;15.02;;;;;;;18.46;100.00;101211.69;5129555;27;20023;-64
2023/06/21 02:49:41;;;;;;;17.25;15.55;;;;;;;18.49;100.00;101198.78;5126547;27;20034;-64
2023/06/21 02:52:09;;;;;;;17.42;15.55;;;;;;;18.46;100.00;101192.84;5083968;28;20028;-64
2023/06/21 02:54:35;;;;;;;17.52;15.85;;;;;;;18.42;100.00;101202.19;5089314;28;20027;-64
2023/06/21 02:57:00;;;;;;;17.20;15.50;;;;;;;18.41;100.00;101198.63;5112502;28;20494;-65
2023/06/21 02:59:28;;;;;;;16.98;15.48;;;;;;;18.29;100.00;101211.34;5101982;28;20035;-64
2023/06/21 03:01:55;;;;;;;16.00;14.40;;;;;;;18.28;100.00;101200.75;5107578;28;20031;-64
2023/06/21 03:04:20;;;;;;;16.63;14.82;;;;;;;18.40;100.00;101221.19;5075328;28;20050;-65
2023/06/21 03:06:46;;;;;;;16.92;15.43;;;;;;;18.38;100.00;101224.03;5103607;28;20031;-65
2023/06/21 03:09:13;;;;;;;16.60;14.50;;;;;;;18.45;100.00;101229.69;5093781;28;20039;-64
2023/06/21 03:11:39;;;;;;;16.55;14.95;;;;;;;18.35;100.00;101224.31;5112556;28;20038;-64
2023/06/21 03:14:04;;;;;;;18.20;16.33;;;;;;;18.38;100.00;101232.09;5112575;28;20382;-64
2023/06/21 03:16:30;;;;;;;17.05;15.18;;;;;;;18.40;100.00;101240.03;5093446;28;20055;-64
2023/06/21 03:18:55;;;;;;;16.95;15.25;;;;;;;18.35;100.00;101240.47;5107406;28;20019;-64
2023/06/21 03:21:22;;;;;;;16.55;14.93;;;;;;;18.38;100.00;101242.00;5081287;28;20031;-63
2023/06/21 03:23:48;;;;;;;16.73;15.23;;;;;;;18.32;100.00;101251.50;5096936;28;20505;-64
2023/06/21 03:26:13;;;;;;;16.63;15.05;;;;;;;18.38;100.00;101256.34;5094124;28;20092;-63
2023/06/21 03:28:42;;;;;;;16.98;15.48;;;;;;;18.29;100.00;101250.91;5112074;28;20454;-64
2023/06/21 03:31:07;;;;;;;17.35;15.70;;;;;;;18.33;100.00;101252.34;5111303;28;20470;-64
2023/06/21 03:33:33;;;;;;;17.63;16.02;;;;;;;18.26;100.00;101241.25;5093436;28;20026;-64
2023/06/21 03:35:58;;;;;;;17.67;16.08;;;;;;;18.19;100.00;101242.81;5112554;28;20133;-64
2023/06/21 03:38:26;;;;;;;17.85;16.15;;;;;;;18.28;100.00;101246.53;5092560;28;20027;-64
2023/06/21 03:40:51;;;;;;;20.55;16.60;;;;;;;18.33;100.00;101246.97;5090583;28;20394;-64
2023/06/21 03:43:17;;;;;;;28.05;16.52;;;;;;;18.26;100.00;101251.19;5094951;28;20020;-65
2023/06/21 03:45:42;;;;;;;17.95;16.20;;;;;;;18.27;100.00;101247.53;5098619;28;20043;-64
2023/06/21 03:48:08;;;;;;;17.45;15.95;;;;;;;18.29;100.00;101237.44;5104960;28;20034;-64
2023/06/21 03:50:35;;;;;;;19.92;17.73;;;;;;;18.32;100.00;101245.25;5118338;27;20023;-64
2023/06/21 03:53:01;;;;;;;18.63;16.88;;;;;;;18.23;100.00;101238.00;5111727;28;20395;-64
2023/06/21 03:55:26;;;;;;;19.17;17.10;;;;;;;18.41;100.00;101243.56;5111607;28;20099;-63
2023/06/21 03:57:52;;;;;;;19.13;17.02;;;;;;;18.43;100.00;101255.06;5093221;28;20024;-64
2023/06/21 04:00:17;;;;;;;18.52;16.80;;;;;;;18.45;100.00;101243.16;5077400;28;20110;-63
2023/06/21 04:02:46;;;;;;;17.73;16.13;;;;;;;18.43;100.00;101258.59;5091900;28;20050;-63
2023/06/21 04:05:11;;;;;;;20.07;17.97;;;;;;;18.53;100.00;101264.88;5091963;28;20092;-64
2023/06/21 04:07:40;;;;;;;18.85;17.17;;;;;;;18.50;100.00;101264.28;5084366;28;20775;-65
2023/06/21 04:10:08;;;;;;;19.25;17.25;;;;;;;18.48;100.00;101259.06;5091825;28;20032;-65
2023/06/21 04:12:36;;;;;;;19.47;17.47;;;;;;;18.43;100.00;101272.06;5107785;28;20094;-65
2023/06/21 04:15:02;;;;;;;20.20;18.13;;;;;;;18.55;100.00;101279.03;5092281;28;20285;-65
2023/06/21 04:17:28;;;;;;;20.90;17.90;;;;;;;18.49;100.00;101279.59;5111475;28;20024;-64
2023/06/21 04:19:56;;;;;;;21.65;18.50;;;;;;;18.48;100.00;101296.75;5101960;28;20016;-65
2023/06/21 04:22:24;;;;;;;19.75;17.80;;;;;;;18.47;100.00;101291.50;5106986;28;20486;-65
2023/06/21 04:24:50;;;;;;;21.10;18.98;;;;;;;18.56;100.00;101298.75;5110954;28;20023;-65
2023/06/21 04:27:16;;;;;;;20.60;18.52;;;;;;;18.47;100.00;101304.97;5109853;28;20050;-65
2023/06/21 04:29:42;;;;;;;20.70;18.65;;;;;;;18.46;100.00;101295.19;5079087;28;20024;-64
2023/06/21 04:32:08;;;;;;;20.38;18.45;;;;;;;18.32;100.00;101272.16;5109882;28;20546;-63
2023/06/21 04:34:34;;;;;;;21.33;19.20;;;;;;;18.51;100.00;101299.19;5111165;28;20038;-63
2023/06/21 04:37:05;;;;;;;21.38;19.23;;;;;;;18.59;100.00;101307.44;5098197;28;20024;-64
2023/06/21 04:39:31;;;;;;;20.80;18.88;;;;;;;18.53;100.00;101313.38;5107547;28;20077;-65
2023/06/21 04:41:58;;;;;;;21.83;19.10;;;;;;;18.54;100.00;101320.47;5086245;28;20050;-65
2023/06/21 04:44:24;;;;;;;20.75;18.73;;;;;;;18.54;100.00;101315.06;5105640;28;20028;-65
2023/06/21 04:46:50;;;;;;;21.67;19.63;;;;;;;18.54;100.00;101316.91;5109846;28;20408;-65
2023/06/21 04:49:17;;;;;;;22.25;19.88;;;;;;;18.56;100.00;101304.13;5093663;28;20023;-65
2023/06/21 04:51:43;;;;;;;21.35;19.20;;;;;;;18.64;100.00;101311.53;5092279;28;20530;-65
2023/06/21 04:54:08;;;;;;;21.58;19.38;;;;;;;18.74;100.00;101301.69;5091523;28;20031;-65
2023/06/21 04:56:35;;;;;;;22.00;20.02;;;;;;;18.77;100.00;101294.19;5095356;28;20019;-65
2023/06/21 04:59:01;;;;;;;23.05;20.38;;;;;;;18.82;100.00;101309.91;5111219;28;20031;-65
2023/06/21 05:01:27;;;;;;;23.38;21.20;;;;;;;18.77;100.00;101293.34;5093138;28;20027;-65
2023/06/21 05:03:53;;;;;;;23.92;21.52;;;;;;;18.86;100.00;101321.28;5107366;28;20034;-65
2023/06/21 05:06:20;;;;;;;23.63;21.27;;;;;;;18.93;100.00;101317.03;5073444;28;20072;-65
2023/06/21 05:08:46;;;;;;;23.30;20.88;;;;;;;18.92;100.00;101326.13;5104339;28;20023;-65
2023/06/21 05:11:11;;;;;;;24.05;21.67;;;;;;;18.97;100.00;101324.72;5095770;28;20072;-64
2023/06/21 05:13:37;;;;;;;24.75;22.00;;;;;;;18.99;100.00;101325.41;5096895;28;20462;-64
2023/06/21 05:16:02;;;;;;;24.73;22.23;;;;;;;19.08;100.00;101331.81;5086965;28;20485;-64
2023/06/21 05:18:27;;;;;;;25.55;23.08;;;;;;;19.15;100.00;101335.66;5098348;27;20028;-64
2023/06/21 05:20:53;;;;;;;25.00;22.58;;;;;;;19.21;100.00;101337.78;5099896;28;20433;-64
2023/06/21 05:23:18;;;;;;;23.42;21.17;;;;;;;19.25;100.00;101339.19;5122614;27;20047;-65
2023/06/21 05:25:44;;;;;;;24.55;22.15;;;;;;;19.27;100.00;101347.16;5096782;28;20016;-64
2023/06/21 05:28:09;;;;;;;25.17;22.77;;;;;;;19.28;100.00;101354.25;5113797;28;20497;-65
2023/06/21 05:30:35;;;;;;;24.30;22.00;;;;;;;19.29;100.00;101353.25;5095924;28;20023;-65
2023/06/21 05:33:00;;;;;;;25.08;22.60;;;;;;;19.31;100.00;101350.44;5103697;28;20143;-65
2023/06/21 05:35:29;;;;;;;28.15;23.55;;;;;;;19.24;100.00;101344.75;5077391;28;20518;-64
2023/06/21 05:37:57;;;;;;;25.77;23.23;;;;;;;19.31;100.00;101347.72;5109612;28;20016;-65
2023/06/21 05:40:22;;;;;;;28.95;23.33;;;;;;;19.31;100.00;101353.13;5110681;28;20600;-65
2023/06/21 05:42:48;;;;;;;25.95;23.45;;;;;;;19.45;100.00;101345.47;5116053;27;20020;-65
2023/06/21 05:45:13;;;;;;;25.92;23.48;;;;;;;19.41;100.00;101352.16;5086345;28;20044;-64
2023/06/21 05:47:39;;;;;;;25.83;23.30;;;;;;;19.37;100.00;101356.09;5110454;27;20028;-65
2023/06/21 05:50:05;;;;;;;25.30;22.88;;;;;;;19.48;100.00;101360.50;5111427;28;20032;-65
2023/06/21 05:52:30;;;;;;;26.48;24.02;;;;;;;19.52;100.00;101359.22;5114073;28;20055;-64
2023/06/21 05:54:56;;;;;;;24.88;22.38;;;;;;;19.50;100.00;101361.19;5114832;28;20058;-64
2023/06/21 05:57:21;;;;;;;24.70;22.30;;;;;;;19.68;100.00;101377.59;5096508;28;20016;-65
2023/06/21 05:59:47;;;;;;;26.60;24.20;;;;;;;19.71;100.00;101380.84;5114330;28;20030;-65
2023/06/21 06:02:12;;;;;;;26.55;23.73;;;;;;;19.73;100.00;101378.84;5113008;28;20015;-65
2023/06/21 06:04:38;;;;;;;26.63;23.98;;;;;;;19.70;100.00;101381.81;5114688;28;20419;-64
2023/06/21 06:07:04;;;;;;;27.50;24.73;;;;;;;19.71;100.00;101388.09;5114528;28;20020;-65
2023/06/21 06:09:29;;;;;;;26.63;23.92;;;;;;;19.67;100.00;101402.84;5096295;28;20118;-64
2023/06/21 06:11:56;;;;;;;27.25;24.65;;;;;;;19.71;100.00;101394.34;5114566;28;20019;-64
2023/06/21 06:14:22;;;;;;;26.95;24.38;;;;;;;19.83;100.00;101397.75;5094571;28;20019;-65
2023/06/21 06:16:50;;;;;;;27.73;24.58;;;;;;;19.98;100.00;101387.34;5113990;28;20368;-65
2023/06/21 06:19:16;;;;;;;26.75;23.92;;;;;;;20.00;100.00;101385.38;5095938;28;20027;-64
2023/06/21 06:21:44;;;;;;;26.10;23.63;;;;;;;20.07;100.00;101393.72;5113691;28;20042;-65
2023/06/21 06:24:09;;;;;;;24.48;22.23;;;;;;;20.12;100.00;101396.84;5096047;28;20486;-66
2023/06/21 06:26:34;;;;;;;24.17;21.88;;;;;;;20.03;99.50;101390.47;5095505;28;20081;-65
2023/06/21 06:29:00;;;;;;;25.13;22.63;;;;;;;20.18;100.00;101410.63;5096192;28;20428;-64
2023/06/21 06:31:28;;;;;;;23.15;20.08;;;;;;;20.36;99.88;101417.97;5113658;28;20031;-67
2023/06/21 06:33:54;;;;;;;20.60;18.63;;;;;;;20.48;97.77;101433.00;5095564;28;20406;-61
2023/06/21 06:36:19;;;;;;;18.45;16.55;;;;;;;20.50;95.05;101425.63;5114191;28;20032;-61
2023/06/21 06:38:48;;;;;;;15.68;14.13;;;;;;;20.64;94.75;101435.97;5114075;28;20031;-61
2023/06/21 06:41:14;;;;;;;19.25;16.33;;;;;;;20.71;93.98;101432.69;5113548;28;20383;-61
2023/06/21 06:43:39;;;;;;;18.02;16.30;;;;;;;20.76;95.16;101438.47;5113942;28;20498;-61
2023/06/21 06:46:05;;;;;;;17.25;14.48;;;;;;;20.78;90.71;101441.91;5113343;28;20048;-61
2023/06/21 06:48:30;;;;;;;15.15;13.10;;;;;;;20.86;90.37;101452.81;5114027;28;20034;-61
2023/06/21 06:50:57;;;;;;;15.80;14.18;;;;;;;20.80;89.63;101456.97;5113770;28;20027;-61
2023/06/21 06:53:23;;;;;;;15.30;13.70;;;;;;;20.75;91.89;101447.59;5095082;28;20110;-62
2023/06/21 06:55:51;;;;;;;19.77;13.40;;;;;;;20.81;89.35;101465.94;5095678;28;20098;-62
2023/06/21 06:58:21;;;;;;;12.70;11.40;;;;;;;20.82;87.29;101470.31;5113843;28;20464;-62
2023/06/21 07:00:49;;;;;;;12.88;11.45;;;;;;;20.76;89.04;101474.47;5113193;28;20314;-62
2023/06/21 07:03:15;;;;;;;12.60;10.95;;;;;;;20.78;89.01;101472.47;5095424;28;20439;-62
2023/06/21 07:05:45;;;;;;;13.35;11.27;;;;;;;20.77;90.06;101475.34;5113110;28;20027;-61
2023/06/21 07:08:11;;;;;;;13.07;11.88;;;;;;;20.80;89.29;101470.50;5094702;28;20031;-61
2023/06/21 07:10:36;;;;;;;17.38;12.65;;;;;;;20.91;88.30;101472.13;5113323;28;20053;-62
2023/06/21 07:13:07;;;;;;;14.20;12.73;;;;;;;21.09;86.57;101462.25;5113273;28;20031;-61
2023/06/21 07:15:33;;;;;;;15.80;14.30;;;;;;;21.27;86.22;101477.69;5112779;28;20031;-62
2023/06/21 07:17:59;;;;;;;17.13;15.43;;;;;;;21.34;86.60;101481.47;5112846;28;20382;-62
2023/06/21 07:20:24;;;;;;;18.55;16.63;;;;;;;21.47;87.12;101473.88;5113151;28;20031;-61
2023/06/21 07:22:52;;;;;;;18.17;16.38;;;;;;;21.53;87.97;101475.09;5094642;28;20031;-61
2023/06/21 07:25:17;;;;;;;20.33;18.25;;;;;;;21.68;86.55;101470.88;5094761;28;20073;-61
2023/06/21 07:27:43;;;;;;;18.90;17.08;;;;;;;21.71;83.62;101470.56;5112749;28;20024;-62
2023/06/21 07:30:11;;;;;;;18.15;16.25;;;;;;;21.82;84.34;101472.19;5094414;28;20031;-61
2023/06/21 07:32:36;;;;;;;15.85;14.35;;;;;;;21.99;86.54;101462.34;5112747;28;20047;-61
2023/06/21 07:35:02;;;;;;;15.68;13.23;;;;;;;21.93;82.62;101477.38;5094704;28;20494;-62
2023/06/21 07:37:31;;;;;;;14.65;13.32;;;;;;;21.84;81.93;101483.72;5112963;28;20030;-61
2023/06/21 07:39:57;;;;;;;16.30;13.63;;;;;;;21.95;80.12;101488.91;5112643;28;20478;-64
2023/06/21 07:42:23;;;;;;;15.05;13.50;;;;;;;21.99;80.95;101484.03;5112925;28;20023;-62
2023/06/21 07:44:50;;;;;;;15.98;13.55;;;;;;;22.20;79.54;101487.28;5094300;28;20371;-65
2023/06/21 07:47:16;;;;;;;14.32;12.43;;;;;;;22.18;79.45;101491.19;5112682;28;20063;-62
2023/06/21 07:49:42;;;;;;;15.90;12.90;;;;;;;22.20;76.62;101491.84;5112536;28;20437;-65
2023/06/21 07:52:07;;;;;;;13.65;12.32;;;;;;;22.39;79.19;101493.53;5112680;28;20028;-66
2023/06/21 07:54:32;;;;;;;15.25;12.40;;;;;;;22.58;77.61;101487.03;5112433;28;20049;-66
2023/06/21 07:56:58;;;;;;;15.95;13.13;;;;;;;22.49;77.05;101496.13;5112515;28;20110;-68
2023/06/21 07:59:26;;;;;;;13.95;12.60;;;;;;;22.36;76.37;101500.13;5112701;28;20083;-68
2023/06/21 08:01:51;;;;;;;12.70;11.43;;;;;;;22.34;76.88;101502.13;5110843;28;20053;-69
2023/06/21 08:04:17;;;;;;;14.60;12.57;;;;;;;22.44;76.09;101493.88;5112123;28;20031;-72
2023/06/21 08:06:42;;;;;;;13.23;11.93;;;;;;;22.60;74.29;101513.00;5111970;28;20027;-60
2023/06/21 08:09:08;;;;;;;12.25;11.05;;;;;;;22.64;73.74;101508.09;5112509;28;20031;-61
2023/06/21 08:11:33;;;;;;;11.38;10.27;;;;;;;22.65;72.50;101510.66;5111868;28;20031;-61
2023/06/21 08:13:59;;;;;;;11.43;10.23;;;;;;;22.86;72.58;101510.28;5094018;28;20099;-61
2023/06/21 08:16:24;;;;;;;10.20;9.30;;;;;;;22.95;71.22;101511.22;5111767;28;20498;-61
2023/06/21 08:18:49;;;;;;;9.90;8.52;;;;;;;22.93;68.93;101517.78;5093968;28;20023;-62
2023/06/21 08:21:15;;;;;;;8.77;7.93;;;;;;;23.01;68.78;101520.56;5111357;28;20023;-62
2023/06/21 08:23:42;;;;;;;9.90;8.43;;;;;;;22.93;68.43;101515.06;5093735;28;20027;-62
2023/06/21 08:26:08;;;;;;;9.57;8.57;;;;;;;23.09;67.82;101520.63;5093848;28;20024;-62
2023/06/21 08:28:33;;;;;;;9.52;8.60;;;;;;;22.96;67.42;101514.75;5093830;28;20085;-62
2023/06/21 08:30:59;;;;;;;9.60;8.32;;;;;;;23.12;68.52;101523.00;5111771;28;20462;-62
2023/06/21 08:33:24;;;;;;;9.80;8.48;;;;;;;23.41;66.59;101513.59;5112145;28;20024;-62
2023/06/21 08:35:49;;;;;;;9.07;8.00;;;;;;;23.46;66.60;101513.97;5111878;28;20390;-62
2023/06/21 08:38:15;;;;;;;8.82;7.90;;;;;;;23.50;68.05;101513.47;5093675;28;20034;-62
2023/06/21 08:40:42;;;;;;;11.25;9.25;;;;;;;23.38;67.87;101514.78;5093609;28;20428;-61
2023/06/21 08:43:08;;;;;;;9.93;8.93;;;;;;;23.34;67.40;101519.69;5112184;28;20024;-62
2023/06/21 08:45:36;;;;;;;10.10;8.05;;;;;;;23.40;67.77;101520.91;5114557;28;20048;-62
2023/06/21 08:48:05;;;;;;;9.02;7.55;;;;;;;23.56;65.67;101520.13;5116083;28;20106;-62
2023/06/21 08:50:34;;;;;;;9.30;7.82;;;;;;;23.52;67.36;101521.44;5115491;28;20027;-61
2023/06/21 08:53:02;;;;;;;;;;;;;;;23.81;68.78;101523.75;5098432;28;20371;-62
2023/06/21 08:55:29;;;;;;;13.18;7.47;;;;;;;23.72;67.59;101522.88;5116142;28;19907;-61
2023/06/21 08:58:03;;;;;;;8.40;7.60;;;;;;;23.72;66.70;101527.47;5115888;28;20016;-62
2023/06/21 09:00:34;;;;;;;10.63;7.30;;;;;;;23.82;66.81;101528.16;5115542;28;20032;-62
2023/06/21 09:03:39;;;;;;;4.65;4.00;;;;;;;23.82;61.11;101532.75;5097626;28;20020;-62
2023/06/21 09:06:07;;;;;;;5.60;5.10;;;;;;;23.52;61.06;101527.72;5052592;28;20400;-62
2023/06/21 09:08:34;;;;;;;6.88;5.50;;;;;;;23.54;63.75;101531.13;5087293;28;20035;-62
2023/06/21 09:11:00;;;;;;;8.25;6.20;;;;;;;23.74;64.02;101533.59;5097247;28;20043;-61
2023/06/21 09:13:27;;;;;;;4.97;4.45;;;;;;;23.77;60.13;101528.69;5115769;28;20060;-61
2023/06/21 09:15:55;;;;;;;5.68;5.18;;;;;;;23.82;58.72;101511.88;5115184;28;20027;-62
2023/06/21 09:18:20;;;;;;;6.75;4.97;;;;;;;23.91;58.30;101543.47;5079957;28;20538;-61
2023/06/21 09:20:50;;;;;;;5.20;4.28;;;;;;;24.01;58.44;101546.88;5115154;28;20125;-62
2023/06/21 09:23:16;;;;;;;5.22;4.43;;;;;;;23.85;58.88;101540.56;5097364;28;20432;-62
2023/06/21 09:25:44;;;;;;;4.88;4.38;;;;;;;23.87;60.49;101547.53;5115165;28;20088;-61
2023/06/21 09:28:12;;;;;;;4.97;4.45;;;;;;;23.90;58.20;101547.19;5115481;28;20555;-61
2023/06/21 09:30:38;;;;;;;6.72;4.40;;;;;;;24.10;59.17;101553.19;5114520;28;20032;-61
2023/06/21 09:33:03;;;;;;;4.60;3.30;;;;;;;23.92;55.57;101542.47;5115314;28;20038;-61
2023/06/21 09:35:28;;;;;;;6.75;3.47;;;;;;;24.08;56.05;101544.34;5097036;28;20028;-62
2023/06/21 09:37:56;;;;;;;4.53;4.03;;;;;;;24.06;55.99;101551.84;5097236;28;20034;-62
2023/06/21 09:40:22;;;;;;;4.20;3.80;;;;;;;24.16;55.59;101547.06;5115021;28;20421;-61
2023/06/21 09:42:50;;;;;;;4.65;3.97;;;;;;;24.26;56.68;101555.06;5096977;28;20046;-61
2023/06/21 09:45:19;;;;;;;5.03;4.22;;;;;;;24.39;57.02;101552.69;5096161;28;20108;-61
2023/06/21 09:47:45;;;;;;;5.53;5.03;;;;;;;24.47;56.82;101550.00;5113607;28;20483;-61
2023/06/21 09:50:11;;;;;;;5.78;5.18;;;;;;;24.48;58.50;101559.00;5113952;28;20058;-59
2023/06/21 09:52:42;;;;;;;7.30;5.15;;;;;;;24.59;59.07;101550.50;5113353;28;20080;-61
2023/06/21 09:55:11;;;;;;;7.85;5.05;;;;;;;24.59;56.70;101558.66;5095178;28;20019;-62
2023/06/21 09:57:37;;;;;;;5.15;4.65;;;;;;;24.49;55.94;101555.25;5095578;28;20024;-62
2023/06/21 10:00:05;;;;;;;4.72;3.58;;;;;;;24.51;57.68;101555.09;5113236;28;20175;-61
2023/06/21 10:02:37;;;;;;;;;;;;;;;24.73;56.90;101561.69;5095789;28;20035;-61
2023/06/21 10:05:02;;;;;;;6.25;3.72;;;;;;;24.57;52.85;101560.69;5113073;28;19912;-61
2023/06/21 10:07:28;;;;;;;4.90;4.18;;;;;;;24.68;54.61;101560.34;5113369;28;20031;-62
2023/06/21 10:09:54;;;;;;;4.50;4.10;;;;;;;24.61;54.09;101563.94;5113390;28;20027;-62
2023/06/21 10:12:19;;;;;;;5.57;4.90;;;;;;;24.47;55.45;101577.22;5113769;28;20390;-62
2023/06/21 10:14:45;;;;;;;5.53;4.30;;;;;;;24.62;55.40;101576.50;5094431;28;20099;-62
2023/06/21 10:17:11;;;;;;;7.15;6.05;;;;;;;24.50;56.90;101572.44;5113025;28;20020;-61
2023/06/21 10:19:37;;;;;;;7.28;5.78;;;;;;;24.76;56.94;101583.13;5113132;28;20027;-61
2023/06/21 10:22:06;;;;;;;7.00;5.65;;;;;;;24.79;58.46;101574.63;5095114;28;20027;-61
2023/06/21 10:24:37;;;;;;;7.57;5.32;;;;;;;24.75;56.00;101586.88;5094805;28;20032;-62
2023/06/21 10:27:05;;;;;;;4.88;4.07;;;;;;;24.61;55.24;101594.69;5112967;28;20034;-62
2023/06/21 10:29:34;;;;;;;5.47;3.30;;;;;;;24.97;52.47;101598.91;5113268;28;20023;-67
2023/06/21 10:32:01;;;;;;;10.95;3.45;;;;;;;25.05;52.69;101588.84;5112113;28;20035;-67
2023/06/21 10:34:35;;;;;;;4.45;3.90;;;;;;;25.17;53.78;101591.25;5094579;28;20478;-68
2023/06/21 10:37:14;;;;;;;5.18;4.10;;;;;;;25.18;53.84;101592.94;5094658;28;20408;-66
2023/06/21 10:39:41;;;;;;;6.65;4.95;;;;;;;25.20;51.86;101596.34;5113793;28;20034;-67
2023/06/21 10:42:08;;;;;;;5.75;4.65;;;;;;;25.35;52.19;101603.63;5113667;28;20039;-68
2023/06/21 10:44:36;;;;;;;5.93;5.38;;;;;;;25.08;54.35;101595.81;5112722;28;20106;-68
2023/06/21 10:47:02;;;;;;;10.25;5.18;;;;;;;25.27;55.27;101597.34;5073201;28;1107358;-68
2023/06/21 10:49:29;;;;;;;4.97;4.55;;;;;;;25.44;55.61;101593.53;5095261;28;20039;-67
2023/06/21 10:51:56;;;;;;;6.57;5.00;;;;;;;25.30;54.45;101605.19;5113634;28;20023;-68
2023/06/21 10:54:23;;;;;;;7.25;6.32;;;;;;;25.40;53.87;101605.81;5116662;27;20066;-68
2023/06/21 10:56:50;;;;;;;7.00;6.30;;;;;;;25.47;54.99;101608.66;5104713;27;20023;-66
2023/06/21 10:59:17;;;;;;;6.82;6.07;;;;;;;25.40;53.82;101604.97;5114824;27;20083;-67
2023/06/21 11:01:45;;;;;;;6.60;6.03;;;;;;;25.29;53.96;101603.44;5094638;28;20421;-62
2023/06/21 11:04:10;;;;;;;7.28;6.32;;;;;;;25.17;51.85;101597.53;5095381;28;20015;-62
2023/06/21 11:06:37;;;;;;;7.20;5.68;;;;;;;25.38;55.00;101603.28;5112619;28;20028;-62
2023/06/21 11:09:11;;;;;;;6.57;6.05;;;;;;;25.46;53.25;101610.56;5078485;28;20076;-62